F/V Oceanis — FHLH — position and weather

sailwx.info

Track history (hours):
 
Tides and Currents Weather Stations Pressure Air Temp Water Temp Dewpoint Dewpoint Depression Visibility Wind Speed Wind Dir Waves Ship Positions

F/V Oceanis

Last reported at 2016-Jul-26 10:07 UTC. Time now 2016-Jul-26 21:46 UTC.
Position N 45°03' W 002°17'.

Type: Other ship. MMSI: 228385000.

Date/timePositionNaut miles runAvg speedWind from/ knotsBaromVisibWave heightAir tempDewpointWater temp
2016-Jul-26 10:07N 45°03' W 002°17'13 0.4
2016-Jul-24 21:16N 45°07' W 002°35'  
2016-Jul-22 12:20N 44°39' W 001°31'6 7.8
2016-Jul-22 11:33N 44°36' W 001°24'7 6.8
2016-Jul-22 10:33N 44°37' W 001°14'5 4.6
2016-Jul-22 09:33N 44°39' W 001°09'0 0.0
2016-Jul-22 08:33N 44°39' W 001°09'0 0.0
2016-Jul-22 07:33N 44°39' W 001°09'0 0.0
2016-Jul-22 05:33N 44°39' W 001°09'0 0.0
2016-Jul-22 04:33N 44°39' W 001°09'0 0.0
2016-Jul-22 03:33N 44°39' W 001°09'0 0.0
2016-Jul-22 02:33N 44°39' W 001°09'0 0.0
2016-Jul-22 01:33N 44°39' W 001°09'0 0.0
2016-Jul-22 00:33N 44°39' W 001°09'0 0.0
2016-Jul-21 23:33N 44°39' W 001°09'0 0.0
2016-Jul-21 22:33N 44°39' W 001°09'0 0.0
2016-Jul-21 21:33N 44°39' W 001°09'0 0.0
2016-Jul-21 20:33N 44°39' W 001°09'0 0.0
2016-Jul-21 19:33N 44°39' W 001°09'0 0.0
2016-Jul-21 18:33N 44°39' W 001°09'0 0.0
2016-Jul-21 17:33N 44°39' W 001°09'0 0.0
2016-Jul-21 16:33N 44°39' W 001°09'0 0.0
2016-Jul-21 15:33N 44°39' W 001°09'0 0.0
2016-Jul-21 14:33N 44°39' W 001°09'0 0.0
2016-Jul-21 13:33N 44°39' W 001°09'0 0.0
2016-Jul-21 12:33N 44°39' W 001°09'0 0.0
2016-Jul-21 11:33N 44°39' W 001°09'0 0.0
2016-Jul-21 10:33N 44°39' W 001°09'0 0.0
2016-Jul-21 09:33N 44°39' W 001°09'0 0.0
2016-Jul-21 08:33N 44°39' W 001°09'0 0.0
2016-Jul-21 07:33N 44°39' W 001°09'0 0.0
2016-Jul-21 06:33N 44°39' W 001°09'0 0.0
2016-Jul-21 05:33N 44°39' W 001°09'0 0.0
2016-Jul-21 04:33N 44°39' W 001°09'0 0.0
2016-Jul-21 03:33N 44°39' W 001°09'0 0.0
2016-Jul-21 02:33N 44°39' W 001°09'0 0.0
2016-Jul-21 01:34N 44°39' W 001°09'0 0.0
2016-Jul-21 00:33N 44°39' W 001°09'0 0.0
2016-Jul-20 23:33N 44°39' W 001°09'0 0.0
2016-Jul-20 22:33N 44°39' W 001°09'0 0.0
2016-Jul-20 21:33N 44°39' W 001°09'0 0.0
2016-Jul-20 20:33N 44°39' W 001°09'0 0.0
2016-Jul-20 19:33N 44°39' W 001°09'0 0.0
2016-Jul-20 18:33N 44°39' W 001°09'0 0.0
2016-Jul-20 17:33N 44°39' W 001°09'0 0.0
2016-Jul-20 16:33N 44°39' W 001°09'0 0.0
2016-Jul-20 15:33N 44°39' W 001°09'0 0.0
2016-Jul-20 14:33N 44°39' W 001°09'0 0.0
2016-Jul-20 13:33N 44°39' W 001°09'0 0.0
2016-Jul-20 12:33N 44°39' W 001°09'0 0.0
2016-Jul-20 11:33N 44°39' W 001°09'0 0.0
2016-Jul-20 10:33N 44°39' W 001°09'0 0.0
2016-Jul-20 09:33N 44°39' W 001°09'0 0.0
2016-Jul-20 08:33N 44°39' W 001°09'0 0.0
2016-Jul-20 07:33N 44°39' W 001°09'0 0.0
2016-Jul-20 06:34N 44°39' W 001°09'0 0.0
2016-Jul-20 05:33N 44°39' W 001°09'0 0.0
2016-Jul-20 04:33N 44°39' W 001°09'0 0.0
2016-Jul-20 03:33N 44°39' W 001°09'0 0.0
2016-Jul-20 02:33N 44°39' W 001°09'0 0.0
2016-Jul-20 01:33N 44°39' W 001°09'0 0.0
2016-Jul-20 00:33N 44°39' W 001°09'4 4.2
2016-Jul-19 23:33N 44°38' W 001°14'5 4.7
2016-Jul-19 22:33N 44°37' W 001°21'7 7.3
2016-Jul-19 21:33N 44°43' W 001°26'8 7.6
2016-Jul-19 20:31N 44°49' W 001°32'7 7.5
2016-Jul-19 19:33N 44°55' W 001°38'8 7.6
2016-Jul-19 18:33N 45°02' W 001°43'8 7.7
2016-Jul-19 17:33N 45°09' W 001°49'8 7.9
2016-Jul-19 16:33N 45°15' W 001°55'8 7.8
2016-Jul-19 15:32N 45°22' W 002°01'6 2.8
2016-Jul-19 13:33N 45°27' W 002°02'4 0.9
2016-Jul-19 08:30N 45°23' W 002°02'1 1.2
2016-Jul-19 07:33N 45°24' W 002°02'4 4.3
2016-Jul-19 06:33N 45°25' W 002°07'4 0.2
2016-Jul-18 09:20N 45°26' W 002°03'1 1.5
2016-Jul-18 08:33N 45°25' W 002°03'4 3.6
2016-Jul-18 07:29N 45°21' W 002°03'1 1.0
2016-Jul-18 06:23N 45°20' W 002°02'1 1.6
2016-Jul-18 05:33N 45°19' W 002°03'  
Track history (hours):
 
Tides and Currents Weather Stations Pressure Air Temp Water Temp Dewpoint Dewpoint Depression Visibility Wind Speed Wind Dir Waves Ship Positions

F/V Oceanis

Last reported at 2016-Jul-26 10:07 UTC. Time now 2016-Jul-26 21:46 UTC.
Position N 45°03' W 002°17'.

Type: Other ship. MMSI: 228385000.

Date/timePositionNaut miles runAvg speedWind from/ knotsBaromVisibWave heightAir tempDewpointWater temp
2016-Jul-26 10:07N 45°03' W 002°17'13 0.4
2016-Jul-24 21:16N 45°07' W 002°35'  
2016-Jul-22 12:20N 44°39' W 001°31'6 7.8
2016-Jul-22 11:33N 44°36' W 001°24'7 6.8
2016-Jul-22 10:33N 44°37' W 001°14'5 4.6
2016-Jul-22 09:33N 44°39' W 001°09'0 0.0
2016-Jul-22 08:33N 44°39' W 001°09'0 0.0
2016-Jul-22 07:33N 44°39' W 001°09'0 0.0
2016-Jul-22 05:33N 44°39' W 001°09'0 0.0
2016-Jul-22 04:33N 44°39' W 001°09'0 0.0
2016-Jul-22 03:33N 44°39' W 001°09'0 0.0
2016-Jul-22 02:33N 44°39' W 001°09'0 0.0
2016-Jul-22 01:33N 44°39' W 001°09'0 0.0
2016-Jul-22 00:33N 44°39' W 001°09'0 0.0
2016-Jul-21 23:33N 44°39' W 001°09'0 0.0
2016-Jul-21 22:33N 44°39' W 001°09'0 0.0
2016-Jul-21 21:33N 44°39' W 001°09'0 0.0
2016-Jul-21 20:33N 44°39' W 001°09'0 0.0
2016-Jul-21 19:33N 44°39' W 001°09'0 0.0
2016-Jul-21 18:33N 44°39' W 001°09'0 0.0
2016-Jul-21 17:33N 44°39' W 001°09'0 0.0
2016-Jul-21 16:33N 44°39' W 001°09'0 0.0
2016-Jul-21 15:33N 44°39' W 001°09'0 0.0
2016-Jul-21 14:33N 44°39' W 001°09'0 0.0
2016-Jul-21 13:33N 44°39' W 001°09'0 0.0
2016-Jul-21 12:33N 44°39' W 001°09'0 0.0
2016-Jul-21 11:33N 44°39' W 001°09'0 0.0
2016-Jul-21 10:33N 44°39' W 001°09'0 0.0
2016-Jul-21 09:33N 44°39' W 001°09'0 0.0
2016-Jul-21 08:33N 44°39' W 001°09'0 0.0
2016-Jul-21 07:33N 44°39' W 001°09'0 0.0
2016-Jul-21 06:33N 44°39' W 001°09'0 0.0
2016-Jul-21 05:33N 44°39' W 001°09'0 0.0
2016-Jul-21 04:33N 44°39' W 001°09'0 0.0
2016-Jul-21 03:33N 44°39' W 001°09'0 0.0
2016-Jul-21 02:33N 44°39' W 001°09'0 0.0
2016-Jul-21 01:34N 44°39' W 001°09'0 0.0
2016-Jul-21 00:33N 44°39' W 001°09'0 0.0
2016-Jul-20 23:33N 44°39' W 001°09'0 0.0
2016-Jul-20 22:33N 44°39' W 001°09'0 0.0
2016-Jul-20 21:33N 44°39' W 001°09'0 0.0
2016-Jul-20 20:33N 44°39' W 001°09'0 0.0
2016-Jul-20 19:33N 44°39' W 001°09'0 0.0
2016-Jul-20 18:33N 44°39' W 001°09'0 0.0
2016-Jul-20 17:33N 44°39' W 001°09'0 0.0
2016-Jul-20 16:33N 44°39' W 001°09'0 0.0
2016-Jul-20 15:33N 44°39' W 001°09'0 0.0
2016-Jul-20 14:33N 44°39' W 001°09'0 0.0
2016-Jul-20 13:33N 44°39' W 001°09'0 0.0
2016-Jul-20 12:33N 44°39' W 001°09'0 0.0
2016-Jul-20 11:33N 44°39' W 001°09'0 0.0
2016-Jul-20 10:33N 44°39' W 001°09'0 0.0
2016-Jul-20 09:33N 44°39' W 001°09'0 0.0
2016-Jul-20 08:33N 44°39' W 001°09'0 0.0
2016-Jul-20 07:33N 44°39' W 001°09'0 0.0
2016-Jul-20 06:34N 44°39' W 001°09'0 0.0
2016-Jul-20 05:33N 44°39' W 001°09'0 0.0
2016-Jul-20 04:33N 44°39' W 001°09'0 0.0
2016-Jul-20 03:33N 44°39' W 001°09'0 0.0
2016-Jul-20 02:33N 44°39' W 001°09'0 0.0
2016-Jul-20 01:33N 44°39' W 001°09'0 0.0
2016-Jul-20 00:33N 44°39' W 001°09'4 4.2
2016-Jul-19 23:33N 44°38' W 001°14'5 4.7
2016-Jul-19 22:33N 44°37' W 001°21'7 7.3
2016-Jul-19 21:33N 44°43' W 001°26'8 7.6
2016-Jul-19 20:31N 44°49' W 001°32'7 7.5
2016-Jul-19 19:33N 44°55' W 001°38'8 7.6
2016-Jul-19 18:33N 45°02' W 001°43'8 7.7
2016-Jul-19 17:33N 45°09' W 001°49'8 7.9
2016-Jul-19 16:33N 45°15' W 001°55'8 7.8
2016-Jul-19 15:32N 45°22' W 002°01'6 2.8
2016-Jul-19 13:33N 45°27' W 002°02'4 0.9
2016-Jul-19 08:30N 45°23' W 002°02'1 1.2
2016-Jul-19 07:33N 45°24' W 002°02'4 4.3
2016-Jul-19 06:33N 45°25' W 002°07'4 0.2
2016-Jul-18 09:20N 45°26' W 002°03'1 1.5
2016-Jul-18 08:33N 45°25' W 002°03'4 3.6
2016-Jul-18 07:29N 45°21' W 002°03'1 1.0
2016-Jul-18 06:23N 45°20' W 002°02'1 1.6
2016-Jul-18 05:33N 45°19' W 002°03'  

Dump ship's entire track history